Archival Weather

Phoenix Sky Harbor Intl

Phoenix, Arizona (KPHX)

Report from: Thursday, December 7, 2023 2:51 AM MST
Current time: Wednesday, April 24, 2024 12:06 PM MST

Current weather – Weather history – Daily summaries
Weather forecast

Temperature13.9°C (57.0°F)
Dew point2.2°C (36.0°F)
Winds 5 kts (2.6 m/s, 5.8 mph) East (90°)
Visibility10 mi. (16.1 km)
Clouds Few clouds 12,000 ft. (3,658 m)
Scattered clouds 25,000 ft. (7,620 m)
Altimeter29.98 in.Hg (1015 mB)
Relative humidity45 %
Density altitude-44 ft. (-13 m)
Sea-level pressure101.4 kPa (1014 mB, 29.94 in.Hg)
Remarks Automated weather observing station with precipitation discriminator
Flight conditions Visual Meteorological Conditions
Raw dataKPHX 070951Z 09005KT 10SM FEW120 SCT250 14/02 A2998 RMK AO2 SLP139 T01390022
An error has occurred. This application may no longer respond until reloaded. Reload 🗙